Time;durP1;ratioP1;P1;durP2;ratioP2;P2;SDS_P1;SDS_P2;PMS_P1;PMS_P2;Temp;Humidity;BMP_temperature;BMP_pressure;BME280_temperature;BME280_humidity;BME280_pressure;Samples;Min_cycle;Max_cycle;Signal;HPM_P1;HPM_P2
2021/10/15 00:00:59;;;;;;;7.28;4.70;;;;;;;;;;5088305;28;20023;-51
2021/10/15 00:03:25;;;;;;;7.05;4.80;;;;;;;;;;5088306;28;20045;-52
2021/10/15 00:05:52;;;;;;;7.93;4.93;;;;;;;;;;5088098;28;20028;-52
2021/10/15 00:08:18;;;;;;;7.80;5.30;;;;;;;;;;5086360;28;20027;-51
2021/10/15 00:10:44;;;;;;;9.30;4.63;;;;;;;;;;5076813;28;20392;-52
2021/10/15 00:13:11;;;;;;;7.15;4.45;;;;;;;;;;5066205;28;20028;-50
2021/10/15 00:15:37;;;;;;;7.07;4.78;;;;;;;;;;5066093;28;20025;-50
2021/10/15 00:18:03;;;;;;;7.22;4.97;;;;;;;;;;5066811;28;20020;-52
2021/10/15 00:20:29;;;;;;;7.28;5.20;;;;;;;;;;5066017;28;20055;-49
2021/10/15 00:22:55;;;;;;;7.88;5.05;;;;;;;;;;5065792;28;20499;-52
2021/10/15 00:25:21;;;;;;;9.10;5.25;;;;;;;;;;5065632;28;20025;-50
2021/10/15 00:27:47;;;;;;;7.53;5.03;;;;;;;;;;5066083;28;20032;-50
2021/10/15 00:30:13;;;;;;;8.50;5.68;;;;;;;;;;5065715;28;20111;-51
2021/10/15 00:32:39;;;;;;;8.55;5.50;;;;;;;;;;5065813;28;20079;-52
2021/10/15 00:35:05;;;;;;;8.55;5.72;;;;;;;;;;5066444;28;20012;-51
2021/10/15 00:37:32;;;;;;;9.63;5.80;;;;;;;;;;5073866;28;20021;-52
2021/10/15 00:39:58;;;;;;;8.05;5.25;;;;;;;;;;5086392;28;20304;-49
2021/10/15 00:42:24;;;;;;;9.40;5.68;;;;;;;;;;5084194;28;20026;-52
2021/10/15 00:44:51;;;;;;;7.47;4.95;;;;;;;;;;5086838;28;20028;-50
2021/10/15 00:47:18;;;;;;;8.82;6.03;;;;;;;;;;5083901;28;20035;-51
2021/10/15 00:49:45;;;;;;;9.38;6.38;;;;;;;;;;5064199;28;20418;-51
2021/10/15 00:52:11;;;;;;;10.15;5.80;;;;;;;;;;5064905;28;20117;-52
2021/10/15 00:54:39;;;;;;;8.32;5.47;;;;;;;;;;5065599;28;20089;-48
2021/10/15 00:57:06;;;;;;;8.82;5.80;;;;;;;;;;5065372;28;20023;-49
2021/10/15 00:59:32;;;;;;;9.30;6.00;;;;;;;;;;5065001;28;20059;-50
2021/10/15 01:01:58;;;;;;;6.75;5.05;;;;;;;;;;5065503;28;20063;-49
2021/10/15 01:04:25;;;;;;;7.05;4.50;;;;;;;;;;5064961;28;20037;-49
2021/10/15 01:06:52;;;;;;;7.15;4.57;;;;;;;;;;5064893;28;20491;-52
2021/10/15 01:09:18;;;;;;;6.75;4.75;;;;;;;;;;5065627;28;20032;-50
2021/10/15 01:11:45;;;;;;;5.82;3.97;;;;;;;;;;5065380;28;20024;-50
2021/10/15 01:14:12;;;;;;;7.03;4.20;;;;;;;;;;5065075;28;20118;-51
2021/10/15 01:16:39;;;;;;;6.25;4.45;;;;;;;;;;5065147;28;20070;-50
2021/10/15 01:19:06;;;;;;;6.55;4.60;;;;;;;;;;5065074;28;20024;-51
2021/10/15 01:21:33;;;;;;;6.70;4.50;;;;;;;;;;5064526;28;20117;-50
2021/10/15 01:24:00;;;;;;;5.95;4.03;;;;;;;;;;5064856;28;20028;-51
2021/10/15 01:26:26;;;;;;;7.10;4.93;;;;;;;;;;5064826;28;20077;-57
2021/10/15 01:28:53;;;;;;;7.65;5.05;;;;;;;;;;5065259;28;20431;-52
2021/10/15 01:31:19;;;;;;;6.45;4.68;;;;;;;;;;5083389;28;20039;-52
2021/10/15 01:33:45;;;;;;;9.23;5.70;;;;;;;;;;5085047;28;20036;-52
2021/10/15 01:36:11;;;;;;;7.25;4.20;;;;;;;;;;5084901;28;20039;-49
2021/10/15 01:38:37;;;;;;;7.72;5.38;;;;;;;;;;5085023;28;20024;-51
2021/10/15 01:41:03;;;;;;;6.70;4.90;;;;;;;;;;5083570;28;20445;-52
2021/10/15 01:43:30;;;;;;;7.05;4.80;;;;;;;;;;5084435;28;20036;-52
2021/10/15 01:45:57;;;;;;;5.75;4.10;;;;;;;;;;5085049;28;20102;-50
2021/10/15 01:48:24;;;;;;;7.03;4.40;;;;;;;;;;5071616;28;20036;-51
2021/10/15 01:50:51;;;;;;;7.40;4.25;;;;;;;;;;5065201;28;20032;-52
2021/10/15 01:53:17;;;;;;;5.60;4.07;;;;;;;;;;5066951;28;20074;-49
2021/10/15 01:55:43;;;;;;;6.13;3.92;;;;;;;;;;5069019;28;20648;-51
2021/10/15 01:58:11;;;;;;;5.45;3.65;;;;;;;;;;5068949;28;20103;-52
2021/10/15 02:00:37;;;;;;;4.80;3.30;;;;;;;;;;5068525;28;20025;-48
2021/10/15 02:03:04;;;;;;;4.75;3.42;;;;;;;;;;5068701;28;20036;-51
2021/10/15 02:05:30;;;;;;;3.90;3.17;;;;;;;;;;5068759;28;20514;-51
2021/10/15 02:07:56;;;;;;;5.25;3.67;;;;;;;;;;5068538;28;20530;-51
2021/10/15 02:10:22;;;;;;;5.97;3.92;;;;;;;;;;5068730;28;20036;-50
2021/10/15 02:12:50;;;;;;;6.80;3.90;;;;;;;;;;5069219;28;20378;-49
2021/10/15 02:15:16;;;;;;;5.38;3.60;;;;;;;;;;5068195;28;20024;-50
2021/10/15 02:17:42;;;;;;;6.53;4.38;;;;;;;;;;5078665;28;20086;-51
2021/10/15 02:20:10;;;;;;;5.43;3.85;;;;;;;;;;5088768;28;20028;-48
2021/10/15 02:22:40;;;;;;;5.30;4.00;;;;;;;;;;5088314;28;20056;-51
2021/10/15 02:25:07;;;;;;;5.45;4.13;;;;;;;;;;5088673;28;20024;-50
2021/10/15 02:27:34;;;;;;;5.50;3.40;;;;;;;;;;5088203;28;20542;-52
2021/10/15 02:30:01;;;;;;;7.72;3.97;;;;;;;;;;5088469;28;20016;-50
2021/10/15 02:32:27;;;;;;;5.60;4.05;;;;;;;;;;5088017;28;20035;-52
2021/10/15 02:34:53;;;;;;;5.65;3.75;;;;;;;;;;5088391;28;20024;-51
2021/10/15 02:37:19;;;;;;;4.88;3.47;;;;;;;;;;5087562;28;20020;-51
2021/10/15 02:39:46;;;;;;;3.88;2.90;;;;;;;;;;5087713;28;20643;-51
2021/10/15 02:42:13;;;;;;;3.72;2.55;;;;;;;;;;5086450;28;20035;-50
2021/10/15 02:44:39;;;;;;;5.07;3.17;;;;;;;;;;5088231;28;20020;-52
2021/10/15 02:47:05;;;;;;;3.88;2.72;;;;;;;;;;5083349;28;20036;-49
2021/10/15 02:49:31;;;;;;;4.30;2.63;;;;;;;;;;5067525;28;20021;-53
2021/10/15 02:51:57;;;;;;;6.35;3.33;;;;;;;;;;5067616;28;20133;-50
2021/10/15 02:54:23;;;;;;;5.22;3.17;;;;;;;;;;5067511;28;20407;-52
2021/10/15 02:56:49;;;;;;;4.85;3.35;;;;;;;;;;5068429;28;20036;-51
2021/10/15 02:59:15;;;;;;;4.28;3.40;;;;;;;;;;5067401;28;20036;-52
2021/10/15 03:01:41;;;;;;;4.43;3.47;;;;;;;;;;5067548;28;20044;-51
2021/10/15 03:04:07;;;;;;;4.88;3.38;;;;;;;;;;5067495;28;20523;-52
2021/10/15 03:06:35;;;;;;;6.78;4.10;;;;;;;;;;5067090;28;20040;-52
2021/10/15 03:09:01;;;;;;;7.40;4.50;;;;;;;;;;5067499;28;20032;-49
2021/10/15 03:11:27;;;;;;;6.93;4.15;;;;;;;;;;5067109;28;20047;-52
2021/10/15 03:13:53;;;;;;;6.03;3.70;;;;;;;;;;5067314;28;20107;-50
2021/10/15 03:16:19;;;;;;;5.97;4.28;;;;;;;;;;5067705;28;20124;-52
2021/10/15 03:18:45;;;;;;;5.55;3.67;;;;;;;;;;5067314;28;20070;-52
2021/10/15 03:21:12;;;;;;;5.93;3.60;;;;;;;;;;5067008;28;20027;-51
2021/10/15 03:23:38;;;;;;;6.07;4.43;;;;;;;;;;5067431;28;20028;-52
2021/10/15 03:26:04;;;;;;;6.47;4.18;;;;;;;;;;5067267;28;20029;-55
2021/10/15 03:28:30;;;;;;;5.38;3.97;;;;;;;;;;5067019;28;20041;-54
2021/10/15 03:30:57;;;;;;;6.25;4.38;;;;;;;;;;5067053;28;20086;-50
2021/10/15 03:33:23;;;;;;;5.50;3.53;;;;;;;;;;5066909;28;20024;-52
2021/10/15 03:35:49;;;;;;;5.38;3.85;;;;;;;;;;5067599;28;20027;-49
2021/10/15 03:38:15;;;;;;;5.35;3.50;;;;;;;;;;5066827;28;20409;-49
2021/10/15 03:40:41;;;;;;;6.18;3.50;;;;;;;;;;5067114;28;20112;-51
2021/10/15 03:43:07;;;;;;;4.88;3.45;;;;;;;;;;5066546;28;20025;-51
2021/10/15 03:45:33;;;;;;;4.10;3.42;;;;;;;;;;5066875;28;20113;-52
2021/10/15 03:47:59;;;;;;;6.68;3.75;;;;;;;;;;5066452;28;20032;-50
2021/10/15 03:50:26;;;;;;;5.85;3.88;;;;;;;;;;5066479;28;20024;-49
2021/10/15 03:52:52;;;;;;;5.28;3.53;;;;;;;;;;5066617;28;20028;-53
2021/10/15 03:55:18;;;;;;;5.13;3.53;;;;;;;;;;5067190;28;20025;-50
2021/10/15 03:57:44;;;;;;;4.43;3.22;;;;;;;;;;5066714;28;20028;-49
2021/10/15 04:00:11;;;;;;;5.43;3.80;;;;;;;;;;5066702;28;20100;-52
2021/10/15 04:02:38;;;;;;;4.90;3.33;;;;;;;;;;5066390;28;20021;-49
2021/10/15 04:05:05;;;;;;;4.57;3.28;;;;;;;;;;5074971;28;20028;-50
2021/10/15 04:07:31;;;;;;;5.03;3.08;;;;;;;;;;5086568;28;20659;-51
2021/10/15 04:09:57;;;;;;;4.38;3.00;;;;;;;;;;5068558;28;20033;-51
2021/10/15 04:12:23;;;;;;;4.10;3.13;;;;;;;;;;5066012;28;20052;-48
2021/10/15 04:14:49;;;;;;;4.30;2.90;;;;;;;;;;5065290;28;20028;-50
2021/10/15 04:17:15;;;;;;;3.80;2.80;;;;;;;;;;5066152;28;20331;-50
2021/10/15 04:19:41;;;;;;;5.47;3.15;;;;;;;;;;5066489;28;20518;-52
2021/10/15 04:22:10;;;;;;;4.10;2.80;;;;;;;;;;5065895;28;20028;-50
2021/10/15 04:24:36;;;;;;;3.33;2.50;;;;;;;;;;5065798;28;20024;-52
2021/10/15 04:27:02;;;;;;;4.07;2.67;;;;;;;;;;5065923;28;20111;-51
2021/10/15 04:29:28;;;;;;;4.43;2.67;;;;;;;;;;5065978;28;20059;-51
2021/10/15 04:31:54;;;;;;;3.80;2.92;;;;;;;;;;5065551;28;20044;-49
2021/10/15 04:34:21;;;;;;;2.83;2.42;;;;;;;;;;5066300;28;20029;-52
2021/10/15 04:36:48;;;;;;;3.70;2.53;;;;;;;;;;5084398;28;20054;-52
2021/10/15 04:39:15;;;;;;;3.20;2.58;;;;;;;;;;5084068;28;20131;-49
2021/10/15 04:41:42;;;;;;;2.97;2.40;;;;;;;;;;5064619;28;20530;-51
2021/10/15 04:44:08;;;;;;;4.03;3.10;;;;;;;;;;5065607;28;20046;-50
2021/10/15 04:46:34;;;;;;;4.53;2.97;;;;;;;;;;5064425;28;20028;-50
2021/10/15 04:49:00;;;;;;;4.30;2.72;;;;;;;;;;5065831;28;20099;-49
2021/10/15 04:51:26;;;;;;;4.53;3.20;;;;;;;;;;5065228;28;20075;-48
2021/10/15 04:53:52;;;;;;;4.28;3.13;;;;;;;;;;5066226;28;20036;-52
2021/10/15 04:56:19;;;;;;;3.83;2.95;;;;;;;;;;5066110;28;20033;-52
2021/10/15 04:58:45;;;;;;;4.22;3.10;;;;;;;;;;5065561;28;20431;-50
2021/10/15 05:01:11;;;;;;;4.47;2.83;;;;;;;;;;5064890;28;20238;-48
2021/10/15 05:03:37;;;;;;;3.65;2.72;;;;;;;;;;5064985;28;20552;-49
2021/10/15 05:06:03;;;;;;;3.45;2.58;;;;;;;;;;5064657;28;20032;-50
2021/10/15 05:08:38;;;;;;;3.53;2.70;;;;;;;;;;5064927;28;20032;-49
2021/10/15 05:11:04;;;;;;;4.10;3.03;;;;;;;;;;5065083;28;20453;-49
2021/10/15 05:13:30;;;;;;;3.83;2.85;;;;;;;;;;5064868;28;20425;-49
2021/10/15 05:15:57;;;;;;;3.70;2.95;;;;;;;;;;5065304;28;20056;-49
2021/10/15 05:18:23;;;;;;;3.28;2.50;;;;;;;;;;5065179;28;20032;-49
2021/10/15 05:20:49;;;;;;;4.03;3.10;;;;;;;;;;5065598;28;20016;-49
2021/10/15 05:23:15;;;;;;;4.45;3.10;;;;;;;;;;5064827;28;20157;-48
2021/10/15 05:25:42;;;;;;;5.82;3.40;;;;;;;;;;5063662;28;20468;-53
2021/10/15 05:28:08;;;;;;;3.85;2.90;;;;;;;;;;5064266;28;20040;-55
2021/10/15 05:30:34;;;;;;;4.82;3.03;;;;;;;;;;5064769;28;20024;-61
2021/10/15 05:33:01;;;;;;;4.70;3.10;;;;;;;;;;5064940;28;20064;-51
2021/10/15 05:35:27;;;;;;;4.75;2.97;;;;;;;;;;5064631;28;20027;-52
2021/10/15 05:37:53;;;;;;;3.80;2.83;;;;;;;;;;5065507;28;20028;-52
2021/10/15 05:40:19;;;;;;;5.13;3.40;;;;;;;;;;5065346;28;20043;-51
2021/10/15 05:42:45;;;;;;;4.15;2.85;;;;;;;;;;5064064;28;20029;-49
2021/10/15 05:45:11;;;;;;;3.78;2.72;;;;;;;;;;5064935;28;20035;-49
2021/10/15 05:47:37;;;;;;;4.03;2.90;;;;;;;;;;5065000;28;20051;-51
2021/10/15 05:50:04;;;;;;;4.07;2.88;;;;;;;;;;5064734;28;20017;-53
2021/10/15 05:52:41;;;;;;;4.35;2.97;;;;;;;;;;5064551;28;20047;-51
2021/10/15 05:55:23;;;;;;;4.82;3.30;;;;;;;;;;5065043;28;20407;-52
2021/10/15 06:00:24;;;;;;;4.25;3.20;;;;;;;;;;5071019;28;20037;-51
2021/10/15 06:02:51;;;;;;;4.65;3.30;;;;;;;;;;5066777;28;20020;-49
2021/10/15 06:16:15;;;;;;;5.93;3.25;;;;;;;;;;5086227;28;20039;-52
2021/10/15 06:18:51;;;;;;;4.65;3.30;;;;;;;;;;5068572;28;20024;-52
2021/10/15 06:21:17;;;;;;;5.20;3.45;;;;;;;;;;5077353;28;20503;-53
2021/10/15 06:23:43;;;;;;;5.85;3.20;;;;;;;;;;5075356;28;20134;-49
2021/10/15 06:26:09;;;;;;;4.93;3.22;;;;;;;;;;5068569;28;20495;-53
2021/10/15 06:28:35;;;;;;;4.78;3.15;;;;;;;;;;5065718;28;20514;-53
2021/10/15 06:31:01;;;;;;;7.45;4.22;;;;;;;;;;5069538;28;20024;-53
2021/10/15 06:33:27;;;;;;;9.10;4.93;;;;;;;;;;5082826;28;20029;-53
2021/10/15 06:35:53;;;;;;;9.57;4.93;;;;;;;;;;5066915;28;20605;-52
2021/10/15 06:38:19;;;;;;;9.20;4.70;;;;;;;;;;5085651;28;20052;-52
2021/10/15 06:40:46;;;;;;;7.45;4.38;;;;;;;;;;5078664;28;20495;-51
2021/10/15 06:43:12;;;;;;;7.13;3.80;;;;;;;;;;5089519;28;20024;-53
2021/10/15 06:45:38;;;;;;;5.90;3.45;;;;;;;;;;5078162;28;20115;-50
2021/10/15 06:48:04;;;;;;;6.03;3.40;;;;;;;;;;5089491;28;20402;-51
2021/10/15 06:50:30;;;;;;;5.28;3.55;;;;;;;;;;5089111;28;20031;-52
2021/10/15 06:52:57;;;;;;;4.65;2.75;;;;;;;;;;5089455;28;20089;-52
2021/10/15 06:55:24;;;;;;;5.50;3.35;;;;;;;;;;5080700;28;20101;-52
2021/10/15 06:57:50;;;;;;;4.18;3.03;;;;;;;;;;5079057;28;20537;-52
2021/10/15 07:00:17;;;;;;;4.28;3.30;;;;;;;;;;5082136;28;20024;-53
2021/10/15 07:02:44;;;;;;;5.75;3.85;;;;;;;;;;5089470;28;20024;-53
2021/10/15 07:05:10;;;;;;;3.95;2.88;;;;;;;;;;5087151;28;20024;-51
2021/10/15 07:07:36;;;;;;;3.58;2.67;;;;;;;;;;5069948;28;20020;-53
2021/10/15 07:10:03;;;;;;;3.50;2.47;;;;;;;;;;5082099;28;20749;-51
2021/10/15 07:12:35;;;;;;;4.35;2.95;;;;;;;;;;5082086;28;20031;-53
2021/10/15 07:15:01;;;;;;;3.70;2.70;;;;;;;;;;5088503;28;20067;-50
2021/10/15 07:17:27;;;;;;;3.80;3.00;;;;;;;;;;5087998;28;20428;-52
2021/10/15 07:19:53;;;;;;;2.92;2.35;;;;;;;;;;5089014;28;20035;-52
2021/10/15 07:22:19;;;;;;;4.03;2.63;;;;;;;;;;5077851;28;21519;-51
2021/10/15 07:24:45;;;;;;;3.63;2.72;;;;;;;;;;5075775;28;20418;-50
2021/10/15 07:27:12;;;;;;;3.67;2.40;;;;;;;;;;5069724;28;20043;-49
2021/10/15 07:29:38;;;;;;;3.53;2.15;;;;;;;;;;5067937;28;20060;-52
2021/10/15 07:32:05;;;;;;;2.72;2.15;;;;;;;;;;5067572;28;20407;-55
2021/10/15 07:34:31;;;;;;;3.78;2.10;;;;;;;;;;5078248;28;20034;-51
2021/10/15 07:36:57;;;;;;;2.75;2.13;;;;;;;;;;5076274;28;20103;-53
2021/10/15 07:39:23;;;;;;;2.45;1.80;;;;;;;;;;5086422;28;20035;-52
2021/10/15 07:41:49;;;;;;;3.13;2.30;;;;;;;;;;5073827;28;20024;-53
2021/10/15 07:44:15;;;;;;;2.58;2.00;;;;;;;;;;5094635;28;20023;-53
2021/10/15 07:46:42;;;;;;;2.20;1.80;;;;;;;;;;5084701;28;20039;-53
2021/10/15 07:49:08;;;;;;;3.22;2.08;;;;;;;;;;5066136;28;20407;-52
2021/10/15 07:51:34;;;;;;;2.28;2.05;;;;;;;;;;5074429;28;20488;-52
2021/10/15 07:54:00;;;;;;;2.97;1.98;;;;;;;;;;5070583;28;20036;-51
2021/10/15 07:56:26;;;;;;;2.33;1.90;;;;;;;;;;5074062;28;20065;-50
2021/10/15 07:58:52;;;;;;;2.30;1.80;;;;;;;;;;5074371;28;20043;-51
2021/10/15 08:01:18;;;;;;;2.00;1.80;;;;;;;;;;5082635;28;20569;-52
2021/10/15 08:03:44;;;;;;;2.60;1.83;;;;;;;;;;5071948;28;20548;-52
2021/10/15 08:06:11;;;;;;;2.92;2.13;;;;;;;;;;5070539;28;20027;-50
2021/10/15 08:08:38;;;;;;;3.67;1.83;;;;;;;;;;5070302;28;20038;-51
2021/10/15 08:11:04;;;;;;;4.18;2.20;;;;;;;;;;5071716;28;20040;-51
2021/10/15 08:13:30;;;;;;;2.47;1.90;;;;;;;;;;5086392;28;20141;-54
2021/10/15 08:15:57;;;;;;;1.83;1.63;;;;;;;;;;5083281;28;20028;-53
2021/10/15 08:18:24;;;;;;;1.63;1.52;;;;;;;;;;5068572;28;20028;-49
2021/10/15 08:20:57;;;;;;;2.08;1.70;;;;;;;;;;5068919;28;20583;-51
2021/10/15 08:23:25;;;;;;;1.77;1.38;;;;;;;;;;5071757;28;20036;-51
2021/10/15 08:25:51;;;;;;;2.08;1.60;;;;;;;;;;5075662;28;20479;-52
2021/10/15 08:28:17;;;;;;;2.72;1.73;;;;;;;;;;5079727;28;20032;-53
2021/10/15 08:30:44;;;;;;;1.83;1.67;;;;;;;;;;5090929;28;20032;-53
2021/10/15 08:33:10;;;;;;;2.22;1.65;;;;;;;;;;5105799;28;20035;-50
2021/10/15 08:35:36;;;;;;;1.85;1.45;;;;;;;;;;5094316;28;20023;-53
2021/10/15 08:38:02;;;;;;;2.03;1.52;;;;;;;;;;5107541;28;20050;-53
2021/10/15 08:40:28;;;;;;;1.55;1.42;;;;;;;;;;5088664;28;20384;-53
2021/10/15 08:42:58;;;;;;;1.92;1.50;;;;;;;;;;5077945;28;20028;-50
2021/10/15 08:45:24;;;;;;;2.65;1.65;;;;;;;;;;5067189;28;20078;-54
2021/10/15 08:47:50;;;;;;;1.98;1.42;;;;;;;;;;5066666;28;20071;-51
2021/10/15 08:50:16;;;;;;;1.55;1.23;;;;;;;;;;5075846;28;20032;-53
2021/10/15 08:52:42;;;;;;;1.60;1.27;;;;;;;;;;5073850;28;20035;-51
2021/10/15 08:55:08;;;;;;;1.20;1.10;;;;;;;;;;5070267;28;20590;-52
2021/10/15 08:57:34;;;;;;;1.33;1.10;;;;;;;;;;5067277;28;20032;-53
2021/10/15 09:00:01;;;;;;;1.23;1.10;;;;;;;;;;5066947;28;20028;-52
2021/10/15 09:02:27;;;;;;;1.55;1.30;;;;;;;;;;5070615;28;20396;-53
2021/10/15 09:04:54;;;;;;;1.60;1.38;;;;;;;;;;5077004;28;20032;-53
2021/10/15 09:07:21;;;;;;;1.52;1.40;;;;;;;;;;5078010;28;20028;-53
2021/10/15 09:09:49;;;;;;;1.50;1.25;;;;;;;;;;5071077;28;20033;-52
2021/10/15 09:12:16;;;;;;;1.10;1.00;;;;;;;;;;5066969;28;21107;-50
2021/10/15 09:14:43;;;;;;;1.42;1.05;;;;;;;;;;5087788;28;20030;-53
2021/10/15 09:17:09;;;;;;;1.00;0.82;;;;;;;;;;5077273;28;20093;-52
2021/10/15 09:19:44;;;;;;;1.08;0.98;;;;;;;;;;5067897;28;20044;-52
2021/10/15 09:22:31;;;;;;;1.65;1.20;;;;;;;;;;5080564;28;20704;-53
2021/10/15 09:25:03;;;;;;;1.25;1.15;;;;;;;;;;5072594;28;20399;-49
2021/10/15 09:27:34;;;;;;;1.73;1.33;;;;;;;;;;5065600;28;20157;-50
2021/10/15 09:30:07;;;;;;;1.60;1.23;;;;;;;;;;5064765;28;20507;-52
2021/10/15 09:32:36;;;;;;;1.13;1.02;;;;;;;;;;5064612;28;20058;-50
2021/10/15 09:35:02;;;;;;;1.48;1.08;;;;;;;;;;5065108;28;20032;-60
2021/10/15 09:37:30;;;;;;;1.30;1.10;;;;;;;;;;5064598;28;20032;-59
2021/10/15 09:40:02;;;;;;;1.60;1.08;;;;;;;;;;5065074;28;20056;-50
2021/10/15 09:42:29;;;;;;;1.55;1.27;;;;;;;;;;5064713;28;20027;-49
2021/10/15 09:45:01;;;;;;;1.38;1.10;;;;;;;;;;5065046;28;20020;-51
2021/10/15 09:47:28;;;;;;;1.60;1.23;;;;;;;;;;5064554;28;20036;-48
2021/10/15 09:49:57;;;;;;;1.30;1.17;;;;;;;;;;5065334;28;20017;-49
2021/10/15 09:52:24;;;;;;;1.27;1.17;;;;;;;;;;5065100;28;20042;-49
2021/10/15 09:54:57;;;;;;;0.90;0.90;;;;;;;;;;5065615;28;20438;-48
2021/10/15 09:57:39;;;;;;;1.20;0.90;;;;;;;;;;5065704;28;20029;-49
2021/10/15 10:00:07;;;;;;;1.98;1.35;;;;;;;;;;5064826;28;20020;-51
2021/10/15 10:02:34;;;;;;;1.30;1.20;;;;;;;;;;5064781;28;20118;-49
2021/10/15 10:05:03;;;;;;;2.25;1.58;;;;;;;;;;5064629;28;20036;-53
2021/10/15 10:07:29;;;;;;;1.33;1.23;;;;;;;;;;5064826;28;20510;-53
2021/10/15 10:09:55;;;;;;;1.15;1.00;;;;;;;;;;5065140;28;20419;-52
2021/10/15 10:12:21;;;;;;;1.20;1.10;;;;;;;;;;5065521;28;20035;-50
2021/10/15 10:14:47;;;;;;;1.13;0.80;;;;;;;;;;5067662;28;20553;-50
2021/10/15 10:17:18;;;;;;;1.10;1.00;;;;;;;;;;5068400;28;20143;-53
2021/10/15 10:19:45;;;;;;;1.13;0.98;;;;;;;;;;5068675;28;20067;-52
2021/10/15 10:22:11;;;;;;;1.00;0.85;;;;;;;;;;5068770;28;20029;-52
2021/10/15 10:24:42;;;;;;;1.00;0.90;;;;;;;;;;5068345;28;20103;-51
2021/10/15 10:27:08;;;;;;;1.08;0.90;;;;;;;;;;5068872;28;20028;-50
2021/10/15 10:29:43;;;;;;;1.35;0.88;;;;;;;;;;5068127;28;20039;-51
2021/10/15 10:32:16;;;;;;;2.05;1.08;;;;;;;;;;5067983;28;20032;-51
2021/10/15 10:34:43;;;;;;;1.57;1.20;;;;;;;;;;5068261;28;20466;-52
2021/10/15 10:37:10;;;;;;;1.50;1.10;;;;;;;;;;5068499;28;20020;-53
2021/10/15 10:39:38;;;;;;;1.17;1.08;;;;;;;;;;5067947;28;20051;-53
2021/10/15 10:42:20;;;;;;;1.48;1.23;;;;;;;;;;5068129;28;20377;-51
2021/10/15 10:44:49;;;;;;;0.95;0.88;;;;;;;;;;5068252;28;20032;-53
2021/10/15 10:47:17;;;;;;;1.00;0.95;;;;;;;;;;5067686;28;20028;-53
2021/10/15 10:50:07;;;;;;;1.33;1.10;;;;;;;;;;5067488;28;20136;-49
2021/10/15 10:52:34;;;;;;;1.23;1.05;;;;;;;;;;5067578;28;20032;-49
2021/10/15 10:55:00;;;;;;;1.05;0.95;;;;;;;;;;5067897;28;20403;-52
2021/10/15 10:57:31;;;;;;;1.50;1.13;;;;;;;;;;5067829;28;20483;-52
2021/10/15 11:00:18;;;;;;;1.13;1.02;;;;;;;;;;5068587;28;20024;-52
2021/10/15 11:02:45;;;;;;;3.72;1.30;;;;;;;;;;5076469;28;20119;-51
2021/10/15 11:05:11;;;;;;;1.45;1.33;;;;;;;;;;5072431;28;20089;-49
2021/10/15 11:07:37;;;;;;;1.45;1.20;;;;;;;;;;5069262;28;20422;-52
2021/10/15 11:10:21;;;;;;;1.30;1.20;;;;;;;;;;5069751;28;20044;-53
2021/10/15 11:12:47;;;;;;;1.10;1.00;;;;;;;;;;5089232;28;20016;-49
2021/10/15 11:15:16;;;;;;;2.25;1.70;;;;;;;;;;5088961;28;20032;-52
2021/10/15 11:17:42;;;;;;;1.73;1.23;;;;;;;;;;5084810;28;20085;-50
2021/10/15 11:20:21;;;;;;;2.17;1.58;;;;;;;;;;5086981;28;20024;-51
2021/10/15 11:22:52;;;;;;;1.80;1.45;;;;;;;;;;5080435;28;20034;-52
2021/10/15 11:25:19;;;;;;;1.73;1.30;;;;;;;;;;5085209;28;20587;-50
2021/10/15 11:27:49;;;;;;;2.08;1.30;;;;;;;;;;5089042;28;20032;-51
2021/10/15 11:30:15;;;;;;;4.03;1.40;;;;;;;;;;5070841;28;20311;-53
2021/10/15 11:32:43;;;;;;;1.45;1.25;;;;;;;;;;5077501;28;20027;-50
2021/10/15 11:35:16;;;;;;;1.30;1.20;;;;;;;;;;5071732;28;20024;-50
2021/10/15 11:37:48;;;;;;;1.73;1.60;;;;;;;;;;5085773;28;20024;-54
2021/10/15 11:40:16;;;;;;;1.90;1.70;;;;;;;;;;5087546;28;20055;-55
2021/10/15 11:42:42;;;;;;;2.20;1.60;;;;;;;;;;5068587;28;20103;-50
2021/10/15 11:45:24;;;;;;;2.38;2.03;;;;;;;;;;5068007;28;20024;-50
2021/10/15 11:48:00;;;;;;;2.53;1.80;;;;;;;;;;5068837;28;20033;-49
2021/10/15 11:50:41;;;;;;;2.38;1.80;;;;;;;;;;5080656;28;20032;-49
2021/10/15 11:53:07;;;;;;;3.55;2.35;;;;;;;;;;5075314;28;20036;-49
2021/10/15 11:55:37;;;;;;;3.05;1.85;;;;;;;;;;5086406;28;20441;-51
2021/10/15 11:58:15;;;;;;;1.67;1.50;;;;;;;;;;5071977;28;20032;-51
2021/10/15 12:01:00;;;;;;;1.73;1.50;;;;;;;;;;5075950;28;20020;-49
2021/10/15 12:03:26;;;;;;;;;;;;;;;;;;5077817;28;20394;-49
2021/10/15 12:05:52;;;;;;;1.52;1.35;;;;;;;;;;5083875;28;20410;-49
2021/10/15 12:08:18;;;;;;;1.95;1.42;;;;;;;;;;5087596;28;20047;-49
2021/10/15 12:10:44;;;;;;;1.88;1.40;;;;;;;;;;5071849;28;20051;-53
2021/10/15 12:13:10;;;;;;;1.50;1.40;;;;;;;;;;5074169;28;20093;-49
2021/10/15 12:15:36;;;;;;;2.35;1.58;;;;;;;;;;5078248;28;20073;-50
2021/10/15 12:18:07;;;;;;;2.20;1.73;;;;;;;;;;5078085;28;20048;-50
2021/10/15 12:20:33;;;;;;;2.35;1.60;;;;;;;;;;5071936;28;20025;-50
2021/10/15 12:23:05;;;;;;;2.10;1.70;;;;;;;;;;5074833;28;20035;-49
2021/10/15 12:25:32;;;;;;;1.67;1.58;;;;;;;;;;5069145;28;20078;-52
2021/10/15 12:27:58;;;;;;;1.80;1.38;;;;;;;;;;5068644;28;20038;-52
2021/10/15 12:30:25;;;;;;;1.90;1.33;;;;;;;;;;5067931;28;20055;-52
2021/10/15 12:32:52;;;;;;;1.67;1.35;;;;;;;;;;5072842;28;20407;-52
2021/10/15 12:35:24;;;;;;;1.58;1.38;;;;;;;;;;5071670;28;20399;-54
2021/10/15 12:37:56;;;;;;;1.60;1.20;;;;;;;;;;5082963;28;20028;-52
2021/10/15 12:40:24;;;;;;;1.55;1.30;;;;;;;;;;5078918;28;20028;-52
2021/10/15 12:42:56;;;;;;;1.98;1.30;;;;;;;;;;5068908;28;20684;-51
2021/10/15 12:45:24;;;;;;;1.80;1.27;;;;;;;;;;5078934;28;20456;-51
2021/10/15 12:47:54;;;;;;;1.95;1.20;;;;;;;;;;5088681;28;20063;-50
2021/10/15 12:50:20;;;;;;;1.58;1.13;;;;;;;;;;5073360;28;20020;-49
2021/10/15 12:52:47;;;;;;;2.00;1.50;;;;;;;;;;5070846;28;20034;-50
2021/10/15 12:55:17;;;;;;;1.40;1.30;;;;;;;;;;5076777;28;20113;-54
2021/10/15 12:57:44;;;;;;;1.67;1.50;;;;;;;;;;5086824;28;20115;-51
2021/10/15 13:00:12;;;;;;;3.25;1.80;;;;;;;;;;5082774;28;20028;-54
2021/10/15 13:02:38;;;;;;;1.90;1.60;;;;;;;;;;5086413;28;20032;-53
2021/10/15 13:05:08;;;;;;;2.13;1.42;;;;;;;;;;5088061;28;20078;-53
2021/10/15 13:07:34;;;;;;;1.67;1.50;;;;;;;;;;5067735;28;20036;-54
2021/10/15 13:10:17;;;;;;;1.20;1.10;;;;;;;;;;5066708;28;20068;-52
2021/10/15 13:12:44;;;;;;;1.30;1.20;;;;;;;;;;5070848;28;20075;-53
2021/10/15 13:15:10;;;;;;;3.28;1.90;;;;;;;;;;5076159;28;20064;-50
2021/10/15 13:17:37;;;;;;;3.17;1.60;;;;;;;;;;5072991;28;20089;-56
2021/10/15 13:20:05;;;;;;;1.65;1.40;;;;;;;;;;5077620;28;20021;-53
2021/10/15 13:22:31;;;;;;;1.23;1.13;;;;;;;;;;5070414;28;20033;-52
2021/10/15 13:24:57;;;;;;;1.67;1.30;;;;;;;;;;5067917;28;20028;-53
2021/10/15 13:27:23;;;;;;;1.50;1.10;;;;;;;;;;5086784;28;20115;-52
2021/10/15 13:29:49;;;;;;;1.65;1.20;;;;;;;;;;5081657;28;20028;-54
2021/10/15 13:32:16;;;;;;;2.33;1.00;;;;;;;;;;5068026;28;20337;-51
2021/10/15 13:34:46;;;;;;;2.58;1.48;;;;;;;;;;5078876;28;20436;-54
2021/10/15 13:37:17;;;;;;;2.25;1.40;;;;;;;;;;5085405;28;20048;-55
2021/10/15 13:39:46;;;;;;;1.48;1.10;;;;;;;;;;5078955;28;20048;-61
2021/10/15 13:47:44;;;;;;;1.92;1.50;;;;;;;;;;5087272;28;19915;-53
2021/10/15 13:50:10;;;;;;;1.30;1.15;;;;;;;;;;5071113;28;20029;-52
2021/10/15 13:52:37;;;;;;;1.50;1.30;;;;;;;;;;5064633;28;20032;-53
2021/10/15 13:55:09;;;;;;;1.75;1.20;;;;;;;;;;5066825;28;20108;-51
2021/10/15 13:57:37;;;;;;;1.70;1.42;;;;;;;;;;5079065;28;20441;-50
2021/10/15 14:02:41;;;;;;;1.98;1.10;;;;;;;;;;5076781;28;20510;-50
2021/10/15 14:05:07;;;;;;;1.15;1.00;;;;;;;;;;5083843;28;20035;-54
2021/10/15 14:07:33;;;;;;;1.30;1.20;;;;;;;;;;5074557;28;20024;-51
2021/10/15 14:09:59;;;;;;;1.10;1.00;;;;;;;;;;5086193;28;20047;-51
2021/10/15 14:12:25;;;;;;;1.40;1.30;;;;;;;;;;5080161;28;20028;-53
2021/10/15 14:14:54;;;;;;;1.38;1.25;;;;;;;;;;5067652;28;20039;-54
2021/10/15 14:17:20;;;;;;;1.13;1.02;;;;;;;;;;5065997;28;20100;-52
2021/10/15 14:19:46;;;;;;;1.25;0.95;;;;;;;;;;5065952;28;20028;-53
2021/10/15 14:22:12;;;;;;;1.27;1.15;;;;;;;;;;5096047;28;20028;-53
2021/10/15 14:24:38;;;;;;;2.03;1.10;;;;;;;;;;5106349;28;20027;-54
2021/10/15 14:27:05;;;;;;;1.10;1.00;;;;;;;;;;5087572;28;20503;-52
2021/10/15 14:29:31;;;;;;;1.20;1.10;;;;;;;;;;5085691;28;20024;-53
2021/10/15 14:31:57;;;;;;;1.58;1.40;;;;;;;;;;5086098;28;20071;-51
2021/10/15 14:34:23;;;;;;;1.40;1.30;;;;;;;;;;5086429;28;20086;-51
2021/10/15 14:36:50;;;;;;;0.93;0.88;;;;;;;;;;5085965;28;20292;-54
2021/10/15 14:39:17;;;;;;;1.25;1.00;;;;;;;;;;5085729;28;20030;-53
2021/10/15 14:41:43;;;;;;;1.02;0.90;;;;;;;;;;5084670;28;20077;-52
2021/10/15 14:44:09;;;;;;;1.10;1.00;;;;;;;;;;5063896;28;20036;-53
2021/10/15 14:46:35;;;;;;;1.13;0.70;;;;;;;;;;5065660;28;20035;-53
2021/10/15 14:49:01;;;;;;;1.48;1.05;;;;;;;;;;5081350;28;20631;-54
2021/10/15 14:51:27;;;;;;;1.27;1.08;;;;;;;;;;5082294;28;20034;-51
2021/10/15 14:53:53;;;;;;;1.33;1.05;;;;;;;;;;5084359;28;20088;-53
2021/10/15 14:56:19;;;;;;;1.67;1.40;;;;;;;;;;5070267;28;20025;-54
2021/10/15 14:58:46;;;;;;;1.60;1.30;;;;;;;;;;5071108;28;20028;-53
2021/10/15 15:01:12;;;;;;;2.25;1.30;;;;;;;;;;5083158;28;20027;-51
2021/10/15 15:03:39;;;;;;;1.88;1.40;;;;;;;;;;5099061;28;20077;-53
2021/10/15 15:06:05;;;;;;;1.55;1.27;;;;;;;;;;5090784;28;20024;-53